Time;durP1;ratioP1;P1;durP2;ratioP2;P2;SDS_P1;SDS_P2;PMS_P1;PMS_P2;Temp;Humidity;BMP_temperature;BMP_pressure;BME280_temperature;BME280_humidity;BME280_pressure;Samples;Min_cycle;Max_cycle;Signal;HPM_P1;HPM_P2
2024/03/25 00:00:20;;;;;;;;;;;;;;;;;;5032155;28;19925;-68
2024/03/25 00:02:46;;;;;;;;;;;;;;;;;;5025448;28;20375;-68
2024/03/25 00:05:15;;;;;;;;;;;;;;;;;;5045788;28;19931;-68
2024/03/25 00:07:41;;;;;;;;;;;;;;;;;;5033945;28;19925;-68
2024/03/25 00:10:08;;;;;;;;;;;;;;;;;;5080717;23;20577;-62
2024/03/25 00:12:34;;;;;;;;;;;;;;;;;;5029552;28;19929;-63
2024/03/25 00:15:00;;;;;;;;;;;;;;;;;;5040830;28;19925;-63
2024/03/25 00:17:26;;;;;;;;;;;;;;;;;;5049099;28;20006;-63
2024/03/25 00:19:52;;;;;;;;;;;;;;;;;;5049438;28;19956;-63
2024/03/25 00:22:19;;;;;;;;;;;;;;;;;;5026996;28;19944;-63
2024/03/25 00:24:45;;;;;;;;;;;;;;;;;;5046320;28;20429;-63
2024/03/25 00:27:11;;;;;;;;;;;;;;;;;;5049926;28;19929;-63
2024/03/25 00:29:37;;;;;;;;;;;;;;;;;;5048948;28;19927;-63
2024/03/25 00:32:03;;;;;;;;;;;;;;;;;;5049541;28;19925;-63
2024/03/25 00:34:29;;;;;;;;;;;;;;;;;;5048706;28;19927;-63
2024/03/25 00:36:55;;;;;;;;;;;;;;;;;;5048909;28;19928;-63
2024/03/25 00:39:21;;;;;;;;;;;;;;;;;;5030857;28;19925;-63
2024/03/25 00:41:47;;;;;;;;;;;;;;;;;;5049665;28;19925;-63
2024/03/25 00:44:14;;;;;;;;;;;;;;;;;;5030681;28;20031;-63
2024/03/25 00:46:41;;;;;;;;;;;;;;;;;;5050542;28;19928;-64
2024/03/25 00:49:07;;;;;;;;;;;;;;;;;;5015795;28;19975;-63
2024/03/25 00:51:33;;;;;;;;;;;;;;;;;;5050128;28;19928;-63
2024/03/25 00:53:59;;;;;;;;;;;;;;;;;;5026552;28;19944;-63
2024/03/25 00:56:25;;;;;;;;;;;;;;;;;;5020541;28;20292;-63
2024/03/25 00:58:51;;;;;;;;;;;;;;;;;;5027933;28;20360;-63
2024/03/25 01:01:16;;;;;;;;;;;;;;;;;;5046479;28;19921;-64
2024/03/25 01:03:42;;;;;;;;;;;;;;;;;;5049201;28;19920;-64
2024/03/25 01:06:09;;;;;;;;;;;;;;;;;;5045822;28;20011;-64
2024/03/25 01:08:34;;;;;;;;;;;;;;;;;;5037182;28;20384;-64
2024/03/25 01:11:00;;;;;;;;;;;;;;;;;;5047155;28;20031;-64
2024/03/25 01:13:26;;;;;;;;;;;;;;;;;;5043505;28;19921;-64
2024/03/25 01:15:52;;;;;;;;;;;;;;;;;;5039871;28;20058;-64
2024/03/25 01:18:18;;;;;;;;;;;;;;;;;;5052284;28;20015;-64
2024/03/25 01:20:44;;;;;;;;;;;;;;;;;;5034878;28;20427;-64
2024/03/25 01:23:10;;;;;;;;;;;;;;;;;;5034486;28;19921;-64
2024/03/25 01:25:36;;;;;;;;;;;;;;;;;;5025971;28;19936;-64
2024/03/25 01:28:02;;;;;;;;;;;;;;;;;;5021418;28;19925;-64
2024/03/25 01:30:28;;;;;;;;;;;;;;;;;;5049976;28;19921;-64
2024/03/25 01:32:54;;;;;;;;;;;;;;;;;;5035652;28;19929;-64
2024/03/25 01:35:20;;;;;;;;;;;;;;;;;;5053997;28;19980;-64
2024/03/25 01:37:46;;;;;;;;;;;;;;;;;;5051971;28;19921;-64
2024/03/25 01:40:12;;;;;;;;;;;;;;;;;;5054467;28;19921;-64
2024/03/25 01:42:38;;;;;;;;;;;;;;;;;;5049927;28;20011;-64
2024/03/25 01:45:04;;;;;;;;;;;;;;;;;;5033792;28;20004;-64
2024/03/25 01:47:32;;;;;;;;;;;;;;;;;;5032141;28;19928;-64
2024/03/25 01:49:58;;;;;;;;;;;;;;;;;;5051459;28;19920;-62
2024/03/25 01:52:25;;;;;;;;;;;;;;;;;;5051033;28;19925;-62
2024/03/25 01:54:51;;;;;;;;;;;;;;;;;;5051832;28;20000;-63
2024/03/25 01:57:17;;;;;;;;;;;;;;;;;;5049720;28;20347;-63
2024/03/25 01:59:43;;;;;;;;;;;;;;;;;;5049209;28;19931;-63
2024/03/25 02:02:10;;;;;;;;;;;;;;;;;;5048526;28;19928;-63
2024/03/25 02:04:36;;;;;;;;;;;;;;;;;;5035702;28;19929;-63
2024/03/25 02:07:02;;;;;;;;;;;;;;;;;;5051135;28;19944;-63
2024/03/25 02:09:28;;;;;;;;;;;;;;;;;;5054285;28;19920;-63
2024/03/25 02:11:54;;;;;;;;;;;;;;;;;;5033442;28;19932;-63
2024/03/25 02:14:20;;;;;;;;;;;;;;;;;;5031717;28;19929;-63
2024/03/25 02:16:46;;;;;;;;;;;;;;;;;;5045786;28;20383;-64
2024/03/25 02:19:12;;;;;;;;;;;;;;;;;;5046715;28;19927;-63
2024/03/25 02:21:38;;;;;;;;;;;;;;;;;;5052830;28;19935;-63
2024/03/25 02:24:04;;;;;;;;;;;;;;;;;;5049342;28;19924;-64
2024/03/25 02:26:29;;;;;;;;;;;;;;;;;;5047601;28;20609;-63
2024/03/25 02:28:55;;;;;;;;;;;;;;;;;;5049618;28;19921;-63
2024/03/25 02:31:21;;;;;;;;;;;;;;;;;;5048657;28;19925;-63
2024/03/25 02:33:47;;;;;;;;;;;;;;;;;;5050717;28;19924;-63
2024/03/25 02:36:13;;;;;;;;;;;;;;;;;;5034168;28;19921;-63
2024/03/25 02:38:39;;;;;;;;;;;;;;;;;;5033997;28;20000;-64
2024/03/25 02:41:05;;;;;;;;;;;;;;;;;;5018145;28;20343;-63
2024/03/25 02:43:31;;;;;;;;;;;;;;;;;;5047282;28;19924;-63
2024/03/25 02:45:57;;;;;;;;;;;;;;;;;;5047532;28;19921;-63
2024/03/25 02:48:23;;;;;;;;;;;;;;;;;;5046397;28;20370;-63
2024/03/25 02:50:49;;;;;;;;;;;;;;;;;;5033242;28;19927;-63
2024/03/25 02:53:15;;;;;;;;;;;;;;;;;;5048608;28;19925;-63
2024/03/25 02:55:41;;;;;;;;;;;;;;;;;;5034628;28;20269;-63
2024/03/25 02:58:07;;;;;;;;;;;;;;;;;;5051126;28;19920;-64
2024/03/25 03:00:32;;;;;;;;;;;;;;;;;;5045261;28;19928;-63
2024/03/25 03:02:58;;;;;;;;;;;;;;;;;;5034269;28;19959;-63
2024/03/25 03:05:24;;;;;;;;;;;;;;;;;;5052177;28;20331;-63
2024/03/25 03:07:50;;;;;;;;;;;;;;;;;;5050304;28;19924;-63
2024/03/25 03:10:16;;;;;;;;;;;;;;;;;;5052557;28;19929;-63
2024/03/25 03:12:42;;;;;;;;;;;;;;;;;;5050629;28;19935;-66
2024/03/25 03:15:08;;;;;;;;;;;;;;;;;;5050688;28;20274;-66
2024/03/25 03:17:34;;;;;;;;;;;;;;;;;;5052890;28;19921;-66
2024/03/25 03:20:00;;;;;;;;;;;;;;;;;;5048157;28;19924;-68
2024/03/25 03:22:26;;;;;;;;;;;;;;;;;;5050428;28;19946;-67
2024/03/25 03:24:52;;;;;;;;;;;;;;;;;;5048753;28;19929;-67
2024/03/25 03:27:17;;;;;;;;;;;;;;;;;;5052148;28;19958;-68
2024/03/25 03:29:43;;;;;;;;;;;;;;;;;;5049137;28;19967;-68
2024/03/25 03:32:09;;;;;;;;;;;;;;;;;;5045303;28;20308;-68
2024/03/25 03:34:35;;;;;;;;;;;;;;;;;;5049585;28;19929;-67
2024/03/25 03:37:01;;;;;;;;;;;;;;;;;;5032114;28;19921;-67
2024/03/25 03:39:27;;;;;;;;;;;;;;;;;;5049976;28;19928;-68
2024/03/25 03:41:53;;;;;;;;;;;;;;;;;;5049125;28;19924;-68
2024/03/25 03:44:19;;;;;;;;;;;;;;;;;;5033515;28;19965;-67
2024/03/25 03:46:45;;;;;;;;;;;;;;;;;;5045368;28;20323;-67
2024/03/25 03:49:11;;;;;;;;;;;;;;;;;;5047823;28;19928;-68
2024/03/25 03:51:37;;;;;;;;;;;;;;;;;;5031504;28;19933;-68
2024/03/25 03:54:03;;;;;;;;;;;;;;;;;;5050134;28;19920;-67
2024/03/25 03:56:29;;;;;;;;;;;;;;;;;;5049515;28;19920;-68
2024/03/25 03:58:55;;;;;;;;;;;;;;;;;;5032293;28;19970;-68
2024/03/25 04:01:21;;;;;;;;;;;;;;;;;;5050057;28;20392;-68
2024/03/25 04:03:47;;;;;;;;;;;;;;;;;;5046672;28;20000;-68
2024/03/25 04:06:13;;;;;;;;;;;;;;;;;;5052449;28;20008;-68
2024/03/25 04:08:39;;;;;;;;;;;;;;;;;;5051499;28;20471;-68
2024/03/25 04:11:06;;;;;;;;;;;;;;;;;;5028029;28;19931;-68
2024/03/25 04:13:31;;;;;;;;;;;;;;;;;;5031636;28;19979;-68
2024/03/25 04:15:58;;;;;;;;;;;;;;;;;;5027851;28;19968;-68
2024/03/25 04:18:24;;;;;;;;;;;;;;;;;;5030730;28;19935;-68
2024/03/25 04:20:50;;;;;;;;;;;;;;;;;;5028933;28;20024;-68
2024/03/25 04:23:16;;;;;;;;;;;;;;;;;;5030436;28;19930;-68
2024/03/25 04:25:42;;;;;;;;;;;;;;;;;;5026162;28;19991;-68
2024/03/25 04:28:08;;;;;;;;;;;;;;;;;;5028116;28;19960;-67
2024/03/25 04:30:34;;;;;;;;;;;;;;;;;;5023648;28;20016;-68
2024/03/25 04:33:00;;;;;;;;;;;;;;;;;;5031818;28;19925;-67
2024/03/25 04:35:26;;;;;;;;;;;;;;;;;;5028834;28;20350;-68
2024/03/25 04:37:52;;;;;;;;;;;;;;;;;;5014422;28;19921;-68
2024/03/25 04:40:19;;;;;;;;;;;;;;;;;;5029737;28;20292;-67
2024/03/25 04:42:45;;;;;;;;;;;;;;;;;;5026622;28;19928;-67
2024/03/25 04:45:11;;;;;;;;;;;;;;;;;;5026997;28;19929;-68
2024/03/25 04:47:37;;;;;;;;;;;;;;;;;;5026613;28;20028;-68
2024/03/25 04:50:03;;;;;;;;;;;;;;;;;;5028535;28;20000;-67
2024/03/25 04:52:29;;;;;;;;;;;;;;;;;;5033690;28;20258;-68
2024/03/25 04:54:55;;;;;;;;;;;;;;;;;;5028224;28;19958;-68
2024/03/25 04:57:21;;;;;;;;;;;;;;;;;;5030799;28;19971;-68
2024/03/25 04:59:47;;;;;;;;;;;;;;;;;;5014625;28;19925;-68
2024/03/25 05:02:13;;;;;;;;;;;;;;;;;;5035570;28;20537;-68
2024/03/25 05:04:39;;;;;;;;;;;;;;;;;;5033730;28;19928;-68
2024/03/25 05:07:05;;;;;;;;;;;;;;;;;;5027478;28;19921;-68
2024/03/25 05:09:31;;;;;;;;;;;;;;;;;;5028782;28;20019;-68
2024/03/25 05:11:57;;;;;;;;;;;;;;;;;;5035524;28;20483;-68
2024/03/25 05:14:23;;;;;;;;;;;;;;;;;;5024017;28;19968;-68
2024/03/25 05:16:50;;;;;;;;;;;;;;;;;;5032194;28;20257;-69
2024/03/25 05:19:16;;;;;;;;;;;;;;;;;;5034431;28;20016;-69
2024/03/25 05:21:41;;;;;;;;;;;;;;;;;;5044035;28;20427;-68
2024/03/25 05:24:07;;;;;;;;;;;;;;;;;;5018467;28;19970;-68
2024/03/25 05:26:33;;;;;;;;;;;;;;;;;;5038015;28;19972;-68
2024/03/25 05:28:59;;;;;;;;;;;;;;;;;;5037983;28;19927;-68
2024/03/25 05:31:25;;;;;;;;;;;;;;;;;;5034114;28;19929;-67
2024/03/25 05:33:51;;;;;;;;;;;;;;;;;;5033758;28;20296;-68
2024/03/25 05:36:17;;;;;;;;;;;;;;;;;;5035871;28;19928;-68
2024/03/25 05:38:43;;;;;;;;;;;;;;;;;;5035290;28;19921;-68
2024/03/25 05:41:09;;;;;;;;;;;;;;;;;;5035845;28;19921;-69
2024/03/25 05:43:35;;;;;;;;;;;;;;;;;;5017156;28;20507;-67
2024/03/25 05:46:01;;;;;;;;;;;;;;;;;;5036226;28;19935;-68
2024/03/25 05:48:27;;;;;;;;;;;;;;;;;;5037824;28;19921;-68
2024/03/25 05:50:53;;;;;;;;;;;;;;;;;;5037604;28;19996;-69
2024/03/25 05:53:19;;;;;;;;;;;;;;;;;;5034469;28;20004;-68
2024/03/25 05:55:45;;;;;;;;;;;;;;;;;;5021061;28;19979;-68
2024/03/25 05:58:11;;;;;;;;;;;;;;;;;;5035631;28;19964;-68
2024/03/25 06:00:36;;;;;;;;;;;;;;;;;;5038707;28;19994;-67
2024/03/25 06:03:02;;;;;;;;;;;;;;;;;;5020528;28;19935;-68
2024/03/25 06:05:28;;;;;;;;;;;;;;;;;;5039294;28;19925;-64
2024/03/25 06:07:54;;;;;;;;;;;;;;;;;;5037794;28;19927;-63
2024/03/25 06:10:20;;;;;;;;;;;;;;;;;;5037736;28;19935;-64
2024/03/25 06:12:46;;;;;;;;;;;;;;;;;;5050562;28;20882;-64
2024/03/25 06:15:12;;;;;;;;;;;;;;;;;;5047150;28;19925;-64
2024/03/25 06:17:38;;;;;;;;;;;;;;;;;;5027645;28;19925;-64
2024/03/25 06:20:04;;;;;;;;;;;;;;;;;;5032368;28;19927;-64
2024/03/25 06:22:30;;;;;;;;;;;;;;;;;;5031255;28;20570;-64
2024/03/25 06:24:56;;;;;;;;;;;;;;;;;;5048952;28;20470;-64
2024/03/25 06:27:22;;;;;;;;;;;;;;;;;;5048478;28;19921;-62
2024/03/25 06:29:47;;;;;;;;;;;;;;;;;;5015102;28;19921;-64
2024/03/25 06:35:01;;;;;;;;;;;;;;;;;;5047237;28;19928;-64
2024/03/25 06:37:27;;;;;;;;;;;;;;;;;;5058289;28;19978;-64
2024/03/25 06:39:53;;;;;;;;;;;;;;;;;;5035800;28;20327;-64
2024/03/25 06:42:19;;;;;;;;;;;;;;;;;;5035189;28;19925;-64
2024/03/25 06:44:49;;;;;;;;;;;;;;;;;;5035588;28;19924;-63
2024/03/25 06:47:15;;;;;;;;;;;;;;;;;;5032468;28;20436;-64
2024/03/25 06:49:41;;;;;;;;;;;;;;;;;;5033411;28;19968;-63
2024/03/25 06:52:07;;;;;;;;;;;;;;;;;;5030583;28;19925;-63
2024/03/25 06:54:33;;;;;;;;;;;;;;;;;;5053644;28;19920;-63
2024/03/25 06:56:58;;;;;;;;;;;;;;;;;;5031840;28;19975;-64
2024/03/25 06:59:25;;;;;;;;;;;;;;;;;;5035102;28;19929;-64
2024/03/25 07:01:50;;;;;;;;;;;;;;;;;;5038155;28;20268;-64
2024/03/25 07:04:16;;;;;;;;;;;;;;;;;;5015816;28;19971;-64
2024/03/25 07:06:42;;;;;;;;;;;;;;;;;;5057681;28;20506;-62
2024/03/25 07:09:11;;;;;;;;;;;;;;;;;;5035205;28;20012;-62
2024/03/25 07:11:37;;;;;;;;;;;;;;;;;;5049184;28;19925;-63
2024/03/25 07:14:02;;;;;;;;;;;;;;;;;;5031320;28;20252;-64
2024/03/25 07:16:28;;;;;;;;;;;;;;;;;;5053243;28;20257;-64
2024/03/25 07:18:54;;;;;;;;;;;;;;;;;;5034820;28;19947;-64
2024/03/25 07:21:20;;;;;;;;;;;;;;;;;;5052308;28;19978;-64
2024/03/25 07:23:46;;;;;;;;;;;;;;;;;;5055676;28;20015;-63
2024/03/25 07:26:12;;;;;;;;;;;;;;;;;;5014228;28;20040;-64
2024/03/25 07:28:38;;;;;;;;;;;;;;;;;;5049482;28;20027;-64
2024/03/25 07:31:04;;;;;;;;;;;;;;;;;;5065162;28;19924;-64
2024/03/25 07:33:30;;;;;;;;;;;;;;;;;;5067412;28;20291;-63
2024/03/25 07:35:56;;;;;;;;;;;;;;;;;;5052172;28;19921;-63
2024/03/25 07:38:22;;;;;;;;;;;;;;;;;;5052409;28;19924;-63
2024/03/25 07:40:47;;;;;;;;;;;;;;;;;;5063280;28;19935;-63
2024/03/25 07:43:13;;;;;;;;;;;;;;;;;;5052355;28;19928;-66
2024/03/25 07:45:42;;;;;;;;;;;;;;;;;;5053880;28;19975;-68
2024/03/25 07:48:08;;;;;;;;;;;;;;;;;;5052765;28;19929;-67
2024/03/25 07:50:34;;;;;;;;;;;;;;;;;;5048360;28;19921;-67
2024/03/25 07:53:00;;;;;;;;;;;;;;;;;;5052233;28;19982;-68
2024/03/25 07:55:26;;;;;;;;;;;;;;;;;;5023985;28;19921;-67
2024/03/25 07:57:52;;;;;;;;;;;;;;;;;;5032956;28;19924;-67
2024/03/25 08:00:18;;;;;;;;;;;;;;;;;;5050294;28;19928;-68
2024/03/25 08:02:44;;;;;;;;;;;;;;;;;;5027123;28;19924;-67
2024/03/25 08:05:10;;;;;;;;;;;;;;;;;;5029819;28;20560;-67
2024/03/25 08:07:36;;;;;;;;;;;;;;;;;;5049250;28;19928;-68
2024/03/25 08:10:03;;;;;;;;;;;;;;;;;;5050629;28;19925;-67
2024/03/25 08:12:29;;;;;;;;;;;;;;;;;;5051956;28;20374;-68
2024/03/25 08:14:55;;;;;;;;;;;;;;;;;;5035625;28;19920;-67
2024/03/25 08:17:21;;;;;;;;;;;;;;;;;;5051079;28;19956;-67
2024/03/25 08:19:47;;;;;;;;;;;;;;;;;;5043179;28;19967;-66
2024/03/25 08:22:13;;;;;;;;;;;;;;;;;;5013496;28;20019;-68
2024/03/25 08:24:39;;;;;;;;;;;;;;;;;;5037618;28;19921;-67
2024/03/25 08:27:05;;;;;;;;;;;;;;;;;;5029530;28;19978;-69
2024/03/25 08:29:31;;;;;;;;;;;;;;;;;;5049792;28;20329;-69
2024/03/25 08:31:56;;;;;;;;;;;;;;;;;;5047179;28;19935;-69
2024/03/25 08:34:22;;;;;;;;;;;;;;;;;;5030705;28;19928;-68
2024/03/25 08:36:48;;;;;;;;;;;;;;;;;;5049549;28;19966;-69
2024/03/25 08:39:14;;;;;;;;;;;;;;;;;;5046184;28;20386;-68
2024/03/25 08:41:40;;;;;;;;;;;;;;;;;;5042437;28;19925;-68
2024/03/25 08:44:06;;;;;;;;;;;;;;;;;;5041100;28;19936;-68
2024/03/25 08:46:32;;;;;;;;;;;;;;;;;;5045939;28;19921;-69
2024/03/25 08:48:58;;;;;;;;;;;;;;;;;;5048611;28;19925;-68
2024/03/25 08:51:24;;;;;;;;;;;;;;;;;;5031006;28;19995;-68
2024/03/25 08:53:50;;;;;;;;;;;;;;;;;;5045930;28;20359;-69
2024/03/25 08:56:16;;;;;;;;;;;;;;;;;;5049848;28;19975;-68
2024/03/25 08:58:42;;;;;;;;;;;;;;;;;;5030277;28;19925;-68
2024/03/25 09:01:10;;;;;;;;;;;;;;;;;;5042114;28;19921;-68
2024/03/25 09:03:36;;;;;;;;;;;;;;;;;;5008636;28;19966;-69
2024/03/25 09:06:02;;;;;;;;;;;;;;;;;;5011483;28;19921;-69
2024/03/25 09:08:28;;;;;;;;;;;;;;;;;;5027963;28;19927;-69
2024/03/25 09:11:02;;;;;;;;;;;;;;;;;;5032181;28;19952;-68
2024/03/25 09:13:28;;;;;;;;;;;;;;;;;;5046169;28;20394;-68
2024/03/25 09:15:54;;;;;;;;;;;;;;;;;;5040969;28;19929;-68
2024/03/25 09:18:20;;;;;;;;;;;;;;;;;;5027184;28;20142;-68
2024/03/25 09:20:46;;;;;;;;;;;;;;;;;;5042112;28;19925;-68
2024/03/25 09:23:13;;;;;;;;;;;;;;;;;;5043206;28;19921;-68
2024/03/25 09:25:39;;;;;;;;;;;;;;;;;;5041558;28;19921;-68
2024/03/25 09:28:06;;;;;;;;;;;;;;;;;;5020852;28;19932;-68
2024/03/25 09:30:32;;;;;;;;;;;;;;;;;;5023084;28;20373;-69
2024/03/25 09:32:58;;;;;;;;;;;;;;;;;;5048227;28;19921;-69
2024/03/25 09:35:23;;;;;;;;;;;;;;;;;;5043187;28;19929;-69
2024/03/25 09:37:49;;;;;;;;;;;;;;;;;;5047316;28;19951;-68
2024/03/25 09:40:15;;;;;;;;;;;;;;;;;;5048769;28;20023;-68
2024/03/25 09:42:41;;;;;;;;;;;;;;;;;;5028298;28;20706;-69
2024/03/25 09:45:07;;;;;;;;;;;;;;;;;;5033572;28;19935;-69
2024/03/25 09:47:33;;;;;;;;;;;;;;;;;;5047579;28;19921;-69
2024/03/25 09:49:59;;;;;;;;;;;;;;;;;;5050368;28;19943;-68
2024/03/25 09:52:25;;;;;;;;;;;;;;;;;;5050797;28;19932;-69
2024/03/25 09:54:51;;;;;;;;;;;;;;;;;;5050217;28;19933;-68
2024/03/25 09:57:17;;;;;;;;;;;;;;;;;;5054296;28;19928;-68
2024/03/25 09:59:43;;;;;;;;;;;;;;;;;;5054661;28;19943;-69
2024/03/25 10:02:08;;;;;;;;;;;;;;;;;;5049954;28;20658;-69
2024/03/25 10:04:35;;;;;;;;;;;;;;;;;;5050425;28;19931;-69
2024/03/25 10:07:00;;;;;;;;;;;;;;;;;;5049090;28;21164;-68
2024/03/25 10:09:27;;;;;;;;;;;;;;;;;;5031414;28;19921;-68
2024/03/25 10:11:53;;;;;;;;;;;;;;;;;;5043735;28;19928;-70
2024/03/25 10:14:19;;;;;;;;;;;;;;;;;;5047932;28;19944;-69
2024/03/25 10:16:45;;;;;;;;;;;;;;;;;;5044200;28;19935;-69
2024/03/25 10:19:11;;;;;;;;;;;;;;;;;;5051979;28;19936;-70
2024/03/25 10:21:37;;;;;;;;;;;;;;;;;;5029652;28;19964;-69
2024/03/25 10:24:02;;;;;;;;;;;;;;;;;;5052413;28;20458;-69
2024/03/25 10:26:28;;;;;;;;;;;;;;;;;;5051398;28;19956;-69
2024/03/25 10:28:54;;;;;;;;;;;;;;;;;;5048789;28;19928;-69
2024/03/25 10:31:20;;;;;;;;;;;;;;;;;;5046415;28;19935;-69
2024/03/25 10:33:46;;;;;;;;;;;;;;;;;;5051425;28;20388;-69
2024/03/25 10:36:12;;;;;;;;;;;;;;;;;;5050503;28;19936;-66
2024/03/25 10:38:38;;;;;;;;;;;;;;;;;;5051881;28;19928;-69
2024/03/25 10:41:04;;;;;;;;;;;;;;;;;;5045413;28;19978;-69
2024/03/25 10:43:30;;;;;;;;;;;;;;;;;;5035951;28;20414;-69
2024/03/25 10:45:56;;;;;;;;;;;;;;;;;;5052887;28;19920;-69
2024/03/25 10:48:22;;;;;;;;;;;;;;;;;;5048448;28;19978;-69
2024/03/25 10:50:48;;;;;;;;;;;;;;;;;;5028977;28;19921;-67
2024/03/25 10:53:14;;;;;;;;;;;;;;;;;;5044911;28;19929;-69
2024/03/25 10:55:40;;;;;;;;;;;;;;;;;;5034508;28;19956;-69
2024/03/25 10:58:06;;;;;;;;;;;;;;;;;;5049488;28;19995;-69
2024/03/25 11:00:32;;;;;;;;;;;;;;;;;;5048732;28;19927;-69
2024/03/25 11:02:58;;;;;;;;;;;;;;;;;;5051043;28;20003;-69
2024/03/25 11:05:24;;;;;;;;;;;;;;;;;;5052083;28;20015;-69
2024/03/25 11:07:50;;;;;;;;;;;;;;;;;;5016039;28;20309;-70
2024/03/25 11:10:16;;;;;;;;;;;;;;;;;;5052895;28;19924;-67
2024/03/25 11:12:42;;;;;;;;;;;;;;;;;;5033804;28;20445;-68
2024/03/25 11:15:08;;;;;;;;;;;;;;;;;;5048778;28;19925;-69
2024/03/25 11:17:34;;;;;;;;;;;;;;;;;;5032955;28;19971;-68
2024/03/25 11:20:00;;;;;;;;;;;;;;;;;;5053213;28;19979;-68
2024/03/25 11:22:26;;;;;;;;;;;;;;;;;;5048168;28;19925;-68
2024/03/25 11:24:52;;;;;;;;;;;;;;;;;;5049574;28;19925;-69
2024/03/25 11:27:18;;;;;;;;;;;;;;;;;;5050784;28;20004;-69
2024/03/25 11:29:44;;;;;;;;;;;;;;;;;;5032777;28;20007;-69
2024/03/25 11:32:10;;;;;;;;;;;;;;;;;;5047554;28;20378;-67
2024/03/25 11:34:36;;;;;;;;;;;;;;;;;;5050082;28;19935;-67
2024/03/25 11:37:02;;;;;;;;;;;;;;;;;;5048839;28;19928;-69
2024/03/25 11:39:28;;;;;;;;;;;;;;;;;;5031532;28;19920;-68
2024/03/25 11:41:54;;;;;;;;;;;;;;;;;;5048523;28;19924;-69
2024/03/25 11:44:22;;;;;;;;;;;;;;;;;;5048210;28;19921;-69
2024/03/25 11:46:48;;;;;;;;;;;;;;;;;;5044067;28;20272;-68
2024/03/25 11:49:14;;;;;;;;;;;;;;;;;;5045011;28;20050;-69
2024/03/25 11:51:41;;;;;;;;;;;;;;;;;;5043573;28;20365;-69
2024/03/25 11:54:07;;;;;;;;;;;;;;;;;;5030410;28;20391;-68
2024/03/25 11:56:33;;;;;;;;;;;;;;;;;;5046361;28;19921;-69
2024/03/25 11:58:59;;;;;;;;;;;;;;;;;;5045905;28;19932;-69
2024/03/25 12:01:25;;;;;;;;;;;;;;;;;;5051452;28;19927;-68
2024/03/25 12:03:51;;;;;;;;;;;;;;;;;;5049952;28;19965;-68
2024/03/25 12:06:17;;;;;;;;;;;;;;;;;;5033843;28;20298;-68
2024/03/25 12:11:27;;;;;;;;;;;;;;;;;;5045274;28;19929;-68
2024/03/25 12:13:53;;;;;;;;;;;;;;;;;;5027617;28;19921;-68
2024/03/25 12:16:19;;;;;;;;;;;;;;;;;;5045131;28;19931;-70
2024/03/25 12:18:45;;;;;;;;;;;;;;;;;;5043484;28;19984;-69
2024/03/25 12:21:11;;;;;;;;;;;;;;;;;;5046132;28;19952;-69
2024/03/25 12:23:37;;;;;;;;;;;;;;;;;;5048051;28;19925;-69
2024/03/25 12:26:03;;;;;;;;;;;;;;;;;;5055124;23;19929;-64
2024/03/25 12:28:29;;;;;;;;;;;;;;;;;;5056544;28;19920;-65
2024/03/25 12:30:55;;;;;;;;;;;;;;;;;;5054971;28;19959;-65
2024/03/25 12:33:21;;;;;;;;;;;;;;;;;;5050747;28;21007;-64
2024/03/25 12:35:47;;;;;;;;;;;;;;;;;;5049734;28;19925;-64
2024/03/25 12:38:13;;;;;;;;;;;;;;;;;;5042697;28;19921;-64
2024/03/25 12:40:39;;;;;;;;;;;;;;;;;;5049399;28;19921;-64
2024/03/25 12:43:05;;;;;;;;;;;;;;;;;;5048696;28;20328;-64
2024/03/25 12:45:31;;;;;;;;;;;;;;;;;;5051605;28;19921;-64
2024/03/25 12:47:57;;;;;;;;;;;;;;;;;;5050564;28;19921;-64
2024/03/25 12:50:23;;;;;;;;;;;;;;;;;;5051473;28;19925;-64
2024/03/25 12:52:49;;;;;;;;;;;;;;;;;;5051692;28;19932;-64
2024/03/25 12:55:15;;;;;;;;;;;;;;;;;;5039410;28;19929;-64
2024/03/25 12:57:41;;;;;;;;;;;;;;;;;;5052728;28;19935;-64
2024/03/25 13:00:08;;;;;;;;;;;;;;;;;;5050542;28;20514;-65
2024/03/25 13:02:33;;;;;;;;;;;;;;;;;;5050333;28;19921;-64
2024/03/25 13:04:59;;;;;;;;;;;;;;;;;;5048982;28;19922;-64
2024/03/25 13:07:25;;;;;;;;;;;;;;;;;;5028870;28;20510;-65
2024/03/25 13:09:51;;;;;;;;;;;;;;;;;;5048934;28;20063;-64
2024/03/25 13:12:17;;;;;;;;;;;;;;;;;;5051480;28;19987;-65
2024/03/25 13:14:43;;;;;;;;;;;;;;;;;;5053441;28;20287;-62
2024/03/25 13:17:09;;;;;;;;;;;;;;;;;;5051984;28;20579;-63
2024/03/25 13:19:35;;;;;;;;;;;;;;;;;;5050432;28;20010;-64
2024/03/25 13:22:01;;;;;;;;;;;;;;;;;;5068799;28;20078;-64
2024/03/25 13:24:27;;;;;;;;;;;;;;;;;;5056365;28;20407;-64
2024/03/25 13:26:53;;;;;;;;;;;;;;;;;;5054701;28;20054;-64
2024/03/25 13:29:19;;;;;;;;;;;;;;;;;;5037205;28;19966;-64
2024/03/25 13:31:45;;;;;;;;;;;;;;;;;;5053380;28;20042;-64
2024/03/25 13:34:10;;;;;;;;;;;;;;;;;;5042020;28;19975;-64
2024/03/25 13:36:37;;;;;;;;;;;;;;;;;;5050252;28;20407;-64
2024/03/25 13:39:02;;;;;;;;;;;;;;;;;;5060733;28;19924;-64
2024/03/25 13:41:28;;;;;;;;;;;;;;;;;;5054644;28;20047;-64
2024/03/25 13:43:54;;;;;;;;;;;;;;;;;;5053686;28;20024;-64
2024/03/25 13:46:20;;;;;;;;;;;;;;;;;;5056953;28;19928;-64
2024/03/25 13:48:46;;;;;;;;;;;;;;;;;;5049728;28;19921;-64
2024/03/25 13:51:12;;;;;;;;;;;;;;;;;;5039516;28;19929;-64
2024/03/25 13:53:38;;;;;;;;;;;;;;;;;;5070290;28;19970;-64
2024/03/25 13:56:04;;;;;;;;;;;;;;;;;;5045395;28;20324;-65
2024/03/25 13:58:30;;;;;;;;;;;;;;;;;;5057699;28;19925;-65
2024/03/25 14:00:56;;;;;;;;;;;;;;;;;;5069384;28;19921;-64
2024/03/25 14:03:22;;;;;;;;;;;;;;;;;;5067666;28;19935;-65
2024/03/25 14:05:48;;;;;;;;;;;;;;;;;;5060331;28;19928;-65
2024/03/25 14:08:14;;;;;;;;;;;;;;;;;;5064312;28;19927;-65
2024/03/25 14:10:40;;;;;;;;;;;;;;;;;;5066590;28;19955;-66
2024/03/25 14:13:05;;;;;;;;;;;;;;;;;;5057929;28;19928;-65
2024/03/25 14:15:31;;;;;;;;;;;;;;;;;;5051687;28;20288;-64
2024/03/25 14:17:57;;;;;;;;;;;;;;;;;;5053029;28;19925;-64
2024/03/25 14:20:23;;;;;;;;;;;;;;;;;;5060440;28;19924;-66
2024/03/25 14:22:49;;;;;;;;;;;;;;;;;;5059614;28;19924;-66
2024/03/25 14:25:15;;;;;;;;;;;;;;;;;;5072825;28;20593;-66
2024/03/25 14:27:41;;;;;;;;;;;;;;;;;;5050869;28;19921;-64
2024/03/25 14:30:07;;;;;;;;;;;;;;;;;;5069505;28;20272;-65
2024/03/25 14:32:33;;;;;;;;;;;;;;;;;;5053636;28;20306;-65
2024/03/25 14:34:59;;;;;;;;;;;;;;;;;;5056352;28;19920;-65
2024/03/25 14:37:25;;;;;;;;;;;;;;;;;;5064585;28;19920;-64
2024/03/25 14:39:52;;;;;;;;;;;;;;;;;;5060455;28;19924;-65
2024/03/25 14:42:18;;;;;;;;;;;;;;;;;;5062487;28;20460;-64
2024/03/25 14:44:44;;;;;;;;;;;;;;;;;;5056729;28;19921;-65
2024/03/25 14:47:09;;;;;;;;;;;;;;;;;;5058787;28;19924;-65
2024/03/25 14:49:35;;;;;;;;;;;;;;;;;;5052989;28;19929;-65
2024/03/25 14:52:03;;;;;;;;;;;;;;;;;;5060345;28;19924;-65
2024/03/25 14:54:29;;;;;;;;;;;;;;;;;;5052752;28;20315;-65
2024/03/25 14:56:55;;;;;;;;;;;;;;;;;;5060615;28;19925;-64
2024/03/25 14:59:21;;;;;;;;;;;;;;;;;;5056632;28;19921;-64
2024/03/25 15:01:47;;;;;;;;;;;;;;;;;;5050752;28;19925;-64
2024/03/25 15:04:13;;;;;;;;;;;;;;;;;;5068258;28;19950;-64
2024/03/25 15:06:39;;;;;;;;;;;;;;;;;;5052869;28;20392;-64
2024/03/25 15:09:05;;;;;;;;;;;;;;;;;;5052710;28;19975;-64
2024/03/25 15:11:31;;;;;;;;;;;;;;;;;;5055818;28;19983;-64
2024/03/25 15:13:57;;;;;;;;;;;;;;;;;;5051036;28;19928;-64
2024/03/25 15:16:23;;;;;;;;;;;;;;;;;;5046426;28;20447;-64
2024/03/25 15:18:49;;;;;;;;;;;;;;;;;;5045023;28;19979;-64
2024/03/25 15:21:14;;;;;;;;;;;;;;;;;;5051825;28;19974;-65
2024/03/25 15:23:40;;;;;;;;;;;;;;;;;;5047814;28;19928;-64
2024/03/25 15:26:06;;;;;;;;;;;;;;;;;;5032035;28;20264;-64
2024/03/25 15:28:33;;;;;;;;;;;;;;;;;;5048572;28;19929;-64
2024/03/25 15:30:59;;;;;;;;;;;;;;;;;;5051688;28;19947;-65
2024/03/25 15:33:25;;;;;;;;;;;;;;;;;;5051470;28;19925;-65
2024/03/25 15:35:51;;;;;;;;;;;;;;;;;;5065005;28;20280;-65
2024/03/25 15:38:17;;;;;;;;;;;;;;;;;;5050529;28;20417;-64
2024/03/25 15:40:43;;;;;;;;;;;;;;;;;;5051818;28;20003;-64
2024/03/25 15:43:09;;;;;;;;;;;;;;;;;;5042152;28;20004;-64
2024/03/25 15:45:35;;;;;;;;;;;;;;;;;;5048903;28;19929;-65
2024/03/25 15:48:03;;;;;;;;;;;;;;;;;;5051865;28;20012;-64
2024/03/25 15:50:29;;;;;;;;;;;;;;;;;;5051575;28;19928;-64
2024/03/25 15:52:55;;;;;;;;;;;;;;;;;;5046476;28;19925;-63
2024/03/25 15:55:21;;;;;;;;;;;;;;;;;;5042957;28;19925;-63
2024/03/25 15:57:47;;;;;;;;;;;;;;;;;;5055570;28;19929;-63
2024/03/25 16:00:13;;;;;;;;;;;;;;;;;;5043079;28;20410;-63
2024/03/25 16:02:38;;;;;;;;;;;;;;;;;;5050984;28;19927;-64
2024/03/25 16:05:04;;;;;;;;;;;;;;;;;;5042017;28;19921;-64
2024/03/25 16:07:30;;;;;;;;;;;;;;;;;;5048050;28;19931;-64
2024/03/25 16:09:57;;;;;;;;;;;;;;;;;;5036429;28;20278;-63
2024/03/25 16:12:23;;;;;;;;;;;;;;;;;;5048127;28;19967;-63
2024/03/25 16:14:49;;;;;;;;;;;;;;;;;;5051590;28;19964;-63
2024/03/25 16:17:15;;;;;;;;;;;;;;;;;;5057341;28;19970;-63
2024/03/25 16:19:41;;;;;;;;;;;;;;;;;;5062590;28;20303;-64
2024/03/25 16:22:06;;;;;;;;;;;;;;;;;;5063940;28;19925;-63
2024/03/25 16:24:32;;;;;;;;;;;;;;;;;;5042885;28;19935;-64
2024/03/25 16:27:00;;;;;;;;;;;;;;;;;;5040389;28;20178;-64
2024/03/25 16:29:26;;;;;;;;;;;;;;;;;;5050686;28;19928;-64
2024/03/25 16:31:52;;;;;;;;;;;;;;;;;;5075276;28;19979;-64
2024/03/25 16:34:18;;;;;;;;;;;;;;;;;;5062302;28;20529;-64
2024/03/25 16:36:44;;;;;;;;;;;;;;;;;;5053860;28;19924;-64
2024/03/25 16:39:10;;;;;;;;;;;;;;;;;;5054815;28;19960;-64
2024/03/25 16:41:36;;;;;;;;;;;;;;;;;;5044268;28;20315;-64